sensor_id;sensor_type;location;lat;lon;timestamp;pressure;altitude;pressure_sealevel;temperature;humidity
57604;BME280;43429;47.380;8.484;2022-07-09T00:01:02;97816.16;;;14.90;93.91
57604;BME280;43429;47.380;8.484;2022-07-09T00:03:28;97822.06;;;14.94;93.68
57604;BME280;43429;47.380;8.484;2022-07-09T00:05:55;97822.50;;;15.07;91.68
57604;BME280;43429;47.380;8.484;2022-07-09T00:08:21;97820.28;;;15.02;92.86
57604;BME280;43429;47.380;8.484;2022-07-09T00:10:48;97828.75;;;14.90;95.18
57604;BME280;43429;47.380;8.484;2022-07-09T00:13:14;97821.75;;;14.97;93.20
57604;BME280;43429;47.380;8.484;2022-07-09T00:15:40;97819.28;;;14.85;94.06
57604;BME280;43429;47.380;8.484;2022-07-09T00:18:08;97814.00;;;14.94;92.17
57604;BME280;43429;47.380;8.484;2022-07-09T00:20:34;97820.13;;;14.86;93.91
57604;BME280;43429;47.380;8.484;2022-07-09T00:23:01;97821.75;;;14.97;91.99
57604;BME280;43429;47.380;8.484;2022-07-09T00:25:27;97815.84;;;14.93;91.00
57604;BME280;43429;47.380;8.484;2022-07-09T00:27:53;97818.38;;;14.95;93.04
57604;BME280;43429;47.380;8.484;2022-07-09T00:30:19;97819.50;;;14.92;92.79
57604;BME280;43429;47.380;8.484;2022-07-09T00:32:46;97814.84;;;14.94;94.75
57604;BME280;43429;47.380;8.484;2022-07-09T00:35:12;97810.06;;;15.06;91.75
57604;BME280;43429;47.380;8.484;2022-07-09T00:37:38;97810.28;;;15.12;91.65
57604;BME280;43429;47.380;8.484;2022-07-09T00:40:07;97818.25;;;15.22;91.13
57604;BME280;43429;47.380;8.484;2022-07-09T00:42:33;97817.78;;;15.27;88.25
57604;BME280;43429;47.380;8.484;2022-07-09T00:44:59;97811.69;;;14.99;92.83
57604;BME280;43429;47.380;8.484;2022-07-09T00:47:25;97810.91;;;15.06;89.32
57604;BME280;43429;47.380;8.484;2022-07-09T00:49:51;97809.22;;;14.87;91.27
57604;BME280;43429;47.380;8.484;2022-07-09T00:52:17;97805.88;;;14.68;96.71
57604;BME280;43429;47.380;8.484;2022-07-09T00:54:44;97807.53;;;14.51;97.67
57604;BME280;43429;47.380;8.484;2022-07-09T00:57:11;97809.03;;;14.35;96.82
57604;BME280;43429;47.380;8.484;2022-07-09T00:59:39;97803.97;;;14.32;97.69
57604;BME280;43429;47.380;8.484;2022-07-09T01:02:06;97799.97;;;14.36;97.39
57604;BME280;43429;47.380;8.484;2022-07-09T01:04:32;97798.97;;;14.38;96.76
57604;BME280;43429;47.380;8.484;2022-07-09T01:06:58;97795.13;;;14.40;97.93
57604;BME280;43429;47.380;8.484;2022-07-09T01:09:24;97784.88;;;14.35;98.70
57604;BME280;43429;47.380;8.484;2022-07-09T01:11:51;97792.53;;;14.30;99.14
57604;BME280;43429;47.380;8.484;2022-07-09T01:14:18;97788.50;;;14.17;100.00
57604;BME280;43429;47.380;8.484;2022-07-09T01:16:45;97783.59;;;14.12;100.00
57604;BME280;43429;47.380;8.484;2022-07-09T01:19:11;97781.47;;;14.16;98.37
57604;BME280;43429;47.380;8.484;2022-07-09T01:21:38;97778.59;;;14.17;99.72
57604;BME280;43429;47.380;8.484;2022-07-09T01:24:05;97781.66;;;14.04;100.00
57604;BME280;43429;47.380;8.484;2022-07-09T01:26:31;97762.53;;;13.90;100.00
57604;BME280;43429;47.380;8.484;2022-07-09T01:28:58;97776.06;;;13.88;100.00
57604;BME280;43429;47.380;8.484;2022-07-09T01:31:24;97779.81;;;13.77;100.00
57604;BME280;43429;47.380;8.484;2022-07-09T01:33:50;97776.59;;;13.74;100.00
57604;BME280;43429;47.380;8.484;2022-07-09T01:36:16;97773.38;;;13.61;100.00
57604;BME280;43429;47.380;8.484;2022-07-09T01:38:43;97766.94;;;13.53;100.00
57604;BME280;43429;47.380;8.484;2022-07-09T01:41:09;97774.22;;;13.61;100.00
57604;BME280;43429;47.380;8.484;2022-07-09T01:43:35;97770.25;;;13.65;100.00
57604;BME280;43429;47.380;8.484;2022-07-09T01:46:02;97763.28;;;13.72;100.00
57604;BME280;43429;47.380;8.484;2022-07-09T01:48:28;97767.38;;;13.49;100.00
57604;BME280;43429;47.380;8.484;2022-07-09T01:50:54;97759.13;;;13.60;100.00
57604;BME280;43429;47.380;8.484;2022-07-09T01:53:21;97764.53;;;13.50;100.00
57604;BME280;43429;47.380;8.484;2022-07-09T01:55:48;97766.28;;;13.42;100.00
57604;BME280;43429;47.380;8.484;2022-07-09T01:58:14;97767.00;;;13.34;100.00
57604;BME280;43429;47.380;8.484;2022-07-09T02:00:40;97776.28;;;13.40;100.00
57604;BME280;43429;47.380;8.484;2022-07-09T02:03:06;97769.63;;;13.44;100.00
57604;BME280;43429;47.380;8.484;2022-07-09T02:05:32;97761.59;;;13.44;100.00
57604;BME280;43429;47.380;8.484;2022-07-09T02:07:58;97767.25;;;13.41;100.00
57604;BME280;43429;47.380;8.484;2022-07-09T02:10:24;97762.31;;;13.36;100.00
57604;BME280;43429;47.380;8.484;2022-07-09T02:12:51;97766.31;;;13.32;100.00
57604;BME280;43429;47.380;8.484;2022-07-09T02:15:17;97748.81;;;13.28;100.00
57604;BME280;43429;47.380;8.484;2022-07-09T02:17:44;97749.81;;;13.27;100.00
57604;BME280;43429;47.380;8.484;2022-07-09T02:20:11;97743.53;;;13.36;100.00
57604;BME280;43429;47.380;8.484;2022-07-09T02:22:37;97745.38;;;13.36;100.00
57604;BME280;43429;47.380;8.484;2022-07-09T02:25:05;97739.75;;;13.29;100.00
57604;BME280;43429;47.380;8.484;2022-07-09T02:27:31;97744.44;;;13.27;100.00
57604;BME280;43429;47.380;8.484;2022-07-09T02:29:58;97743.72;;;13.25;100.00
57604;BME280;43429;47.380;8.484;2022-07-09T02:32:24;97755.28;;;13.25;100.00
57604;BME280;43429;47.380;8.484;2022-07-09T02:34:50;97752.72;;;13.34;100.00
57604;BME280;43429;47.380;8.484;2022-07-09T02:37:16;97758.34;;;13.40;100.00
57604;BME280;43429;47.380;8.484;2022-07-09T02:39:42;97752.00;;;13.41;100.00
57604;BME280;43429;47.380;8.484;2022-07-09T02:42:09;97761.63;;;13.34;100.00
57604;BME280;43429;47.380;8.484;2022-07-09T02:44:35;97764.47;;;13.23;100.00
57604;BME280;43429;47.380;8.484;2022-07-09T02:47:02;97759.25;;;13.12;100.00
57604;BME280;43429;47.380;8.484;2022-07-09T02:49:28;97760.84;;;12.95;100.00
57604;BME280;43429;47.380;8.484;2022-07-09T02:51:54;97766.50;;;12.82;100.00
57604;BME280;43429;47.380;8.484;2022-07-09T02:54:23;97768.75;;;12.67;100.00
57604;BME280;43429;47.380;8.484;2022-07-09T02:56:49;97763.81;;;12.63;100.00
57604;BME280;43429;47.380;8.484;2022-07-09T02:59:15;97763.13;;;12.61;100.00
57604;BME280;43429;47.380;8.484;2022-07-09T03:01:41;97759.31;;;12.73;100.00
57604;BME280;43429;47.380;8.484;2022-07-09T03:04:08;97759.03;;;12.86;100.00
57604;BME280;43429;47.380;8.484;2022-07-09T03:06:34;97761.81;;;12.94;100.00
57604;BME280;43429;47.380;8.484;2022-07-09T03:09:00;97757.72;;;12.99;100.00
57604;BME280;43429;47.380;8.484;2022-07-09T03:11:26;97748.13;;;13.06;100.00
57604;BME280;43429;47.380;8.484;2022-07-09T03:13:52;97756.84;;;13.09;100.00
57604;BME280;43429;47.380;8.484;2022-07-09T03:16:18;97761.94;;;13.12;100.00
57604;BME280;43429;47.380;8.484;2022-07-09T03:18:45;97752.50;;;13.07;100.00
57604;BME280;43429;47.380;8.484;2022-07-09T03:21:11;97751.50;;;13.09;100.00
57604;BME280;43429;47.380;8.484;2022-07-09T03:23:38;97754.34;;;13.07;100.00
57604;BME280;43429;47.380;8.484;2022-07-09T03:26:05;97759.25;;;13.12;100.00
57604;BME280;43429;47.380;8.484;2022-07-09T03:28:31;97755.75;;;13.01;100.00
57604;BME280;43429;47.380;8.484;2022-07-09T03:30:57;97753.09;;;12.82;100.00
57604;BME280;43429;47.380;8.484;2022-07-09T03:33:24;97758.34;;;12.64;100.00
57604;BME280;43429;47.380;8.484;2022-07-09T03:35:50;97760.03;;;12.75;100.00
57604;BME280;43429;47.380;8.484;2022-07-09T03:38:16;97752.41;;;12.80;100.00
57604;BME280;43429;47.380;8.484;2022-07-09T03:40:42;97753.53;;;12.77;100.00
57604;BME280;43429;47.380;8.484;2022-07-09T03:43:09;97756.09;;;12.69;100.00
57604;BME280;43429;47.380;8.484;2022-07-09T03:45:35;97751.41;;;12.62;100.00
57604;BME280;43429;47.380;8.484;2022-07-09T03:48:01;97757.06;;;12.59;100.00
57604;BME280;43429;47.380;8.484;2022-07-09T03:50:27;97752.84;;;12.66;100.00
57604;BME280;43429;47.380;8.484;2022-07-09T03:52:54;97755.09;;;12.70;100.00
57604;BME280;43429;47.380;8.484;2022-07-09T03:55:20;97756.09;;;12.69;100.00
57604;BME280;43429;47.380;8.484;2022-07-09T03:57:46;97753.41;;;12.69;100.00
57604;BME280;43429;47.380;8.484;2022-07-09T04:00:14;97756.94;;;12.79;100.00
57604;BME280;43429;47.380;8.484;2022-07-09T04:02:40;97750.81;;;13.06;100.00
57604;BME280;43429;47.380;8.484;2022-07-09T04:05:07;97757.72;;;12.99;100.00
57604;BME280;43429;47.380;8.484;2022-07-09T04:07:34;97759.84;;;12.96;100.00
57604;BME280;43429;47.380;8.484;2022-07-09T04:10:00;97760.13;;;13.02;100.00
57604;BME280;43429;47.380;8.484;2022-07-09T04:12:27;97761.09;;;13.11;100.00
57604;BME280;43429;47.380;8.484;2022-07-09T04:14:53;97757.28;;;13.23;100.00
57604;BME280;43429;47.380;8.484;2022-07-09T04:17:20;97756.28;;;13.24;100.00
57604;BME280;43429;47.380;8.484;2022-07-09T04:19:46;97756.84;;;13.28;100.00
57604;BME280;43429;47.380;8.484;2022-07-09T04:22:12;97760.19;;;13.40;100.00
57604;BME280;43429;47.380;8.484;2022-07-09T04:24:38;97769.75;;;13.52;100.00
57604;BME280;43429;47.380;8.484;2022-07-09T04:27:05;97771.69;;;13.60;100.00
57604;BME280;43429;47.380;8.484;2022-07-09T04:29:32;97762.47;;;13.72;100.00
57604;BME280;43429;47.380;8.484;2022-07-09T04:31:58;97766.25;;;13.79;100.00
57604;BME280;43429;47.380;8.484;2022-07-09T04:34:24;97770.38;;;14.01;97.72
57604;BME280;43429;47.380;8.484;2022-07-09T04:36:51;97764.34;;;14.17;95.38
57604;BME280;43429;47.380;8.484;2022-07-09T04:39:17;97764.13;;;14.28;94.40
57604;BME280;43429;47.380;8.484;2022-07-09T04:41:43;97760.22;;;14.40;95.40
57604;BME280;43429;47.380;8.484;2022-07-09T04:44:09;97759.50;;;14.48;92.88
57604;BME280;43429;47.380;8.484;2022-07-09T04:46:37;97764.72;;;14.67;92.13
57604;BME280;43429;47.380;8.484;2022-07-09T04:49:04;97761.88;;;14.69;92.27
57604;BME280;43429;47.380;8.484;2022-07-09T04:51:30;97768.06;;;14.87;91.04
57604;BME280;43429;47.380;8.484;2022-07-09T04:53:56;97760.75;;;14.97;89.83
57604;BME280;43429;47.380;8.484;2022-07-09T04:56:22;97771.31;;;15.17;88.33
57604;BME280;43429;47.380;8.484;2022-07-09T04:58:48;97770.38;;;15.26;88.57
57604;BME280;43429;47.380;8.484;2022-07-09T05:01:17;97774.47;;;15.38;86.05
57604;BME280;43429;47.380;8.484;2022-07-09T05:03:44;97775.31;;;15.38;86.63
57604;BME280;43429;47.380;8.484;2022-07-09T05:06:12;97772.16;;;15.43;84.91
57604;BME280;43429;47.380;8.484;2022-07-09T05:08:39;97772.13;;;15.61;81.10
57604;BME280;43429;47.380;8.484;2022-07-09T05:11:05;97782.47;;;15.74;77.76
57604;BME280;43429;47.380;8.484;2022-07-09T05:13:31;97778.34;;;15.96;77.05
57604;BME280;43429;47.380;8.484;2022-07-09T05:15:57;97777.22;;;16.06;75.66
57604;BME280;43429;47.380;8.484;2022-07-09T05:18:24;97773.84;;;16.12;74.59
57604;BME280;43429;47.380;8.484;2022-07-09T05:20:51;97779.16;;;16.30;73.11
57604;BME280;43429;47.380;8.484;2022-07-09T05:23:17;97776.81;;;16.35;72.39
57604;BME280;43429;47.380;8.484;2022-07-09T05:25:43;97771.91;;;16.39;72.29
57604;BME280;43429;47.380;8.484;2022-07-09T05:28:09;97770.41;;;16.36;73.27
57604;BME280;43429;47.380;8.484;2022-07-09T05:30:35;97772.44;;;16.34;73.06
57604;BME280;43429;47.380;8.484;2022-07-09T05:33:02;97773.50;;;16.66;70.34
57604;BME280;43429;47.380;8.484;2022-07-09T05:35:28;97768.44;;;16.63;71.59
57604;BME280;43429;47.380;8.484;2022-07-09T05:37:56;97765.41;;;16.66;70.77
57604;BME280;43429;47.380;8.484;2022-07-09T05:40:22;97766.25;;;16.66;69.77
57604;BME280;43429;47.380;8.484;2022-07-09T05:42:48;97776.72;;;17.10;68.73
57604;BME280;43429;47.380;8.484;2022-07-09T05:45:14;97780.56;;;16.67;71.06
57604;BME280;43429;47.380;8.484;2022-07-09T05:47:40;97778.25;;;16.88;70.12
57604;BME280;43429;47.380;8.484;2022-07-09T05:50:07;97781.13;;;16.87;69.61
57604;BME280;43429;47.380;8.484;2022-07-09T05:52:33;97779.78;;;16.99;69.42
57604;BME280;43429;47.380;8.484;2022-07-09T05:55:00;97782.94;;;17.27;68.14
57604;BME280;43429;47.380;8.484;2022-07-09T05:57:26;97786.69;;;17.34;67.98
57604;BME280;43429;47.380;8.484;2022-07-09T05:59:52;97780.28;;;17.19;68.61
57604;BME280;43429;47.380;8.484;2022-07-09T06:02:18;97778.06;;;17.31;68.39
57604;BME280;43429;47.380;8.484;2022-07-09T06:04:45;97779.72;;;17.56;68.28
57604;BME280;43429;47.380;8.484;2022-07-09T06:07:11;97778.19;;;17.54;68.18
57604;BME280;43429;47.380;8.484;2022-07-09T06:09:37;97778.16;;;17.70;66.49
57604;BME280;43429;47.380;8.484;2022-07-09T06:12:04;97773.97;;;17.76;64.66
57604;BME280;43429;47.380;8.484;2022-07-09T06:14:31;97781.31;;;17.98;65.61
57604;BME280;43429;47.380;8.484;2022-07-09T06:16:58;97788.25;;;17.92;65.30
57604;BME280;43429;47.380;8.484;2022-07-09T06:19:30;97786.41;;;18.24;64.64
57604;BME280;43429;47.380;8.484;2022-07-09T06:21:56;97786.28;;;18.17;64.18
57604;BME280;43429;47.380;8.484;2022-07-09T06:24:23;97790.97;;;17.84;65.10
57604;BME280;43429;47.380;8.484;2022-07-09T06:26:50;97794.88;;;18.21;63.56
57604;BME280;43429;47.380;8.484;2022-07-09T06:29:17;97790.03;;;18.08;65.05
57604;BME280;43429;47.380;8.484;2022-07-09T06:31:43;97790.91;;;18.63;62.83
57604;BME280;43429;47.380;8.484;2022-07-09T06:34:09;97784.53;;;18.33;64.24
57604;BME280;43429;47.380;8.484;2022-07-09T06:36:35;97786.31;;;18.48;64.18
57604;BME280;43429;47.380;8.484;2022-07-09T06:39:02;97786.91;;;18.59;64.06
57604;BME280;43429;47.380;8.484;2022-07-09T06:41:46;97783.59;;;18.80;62.62
57604;BME280;43429;47.380;8.484;2022-07-09T06:44:12;97784.56;;;18.87;63.18
57604;BME280;43429;47.380;8.484;2022-07-09T06:46:39;97792.13;;;18.60;62.70
57604;BME280;43429;47.380;8.484;2022-07-09T06:49:05;97776.03;;;18.75;63.94
57604;BME280;43429;47.380;8.484;2022-07-09T06:51:31;97786.16;;;18.73;62.78
57604;BME280;43429;47.380;8.484;2022-07-09T06:53:57;97787.06;;;18.88;62.26
57604;BME280;43429;47.380;8.484;2022-07-09T06:56:23;97784.41;;;19.03;62.09
57604;BME280;43429;47.380;8.484;2022-07-09T06:58:50;97787.22;;;19.10;61.85
57604;BME280;43429;47.380;8.484;2022-07-09T07:01:16;97787.16;;;19.55;60.27
57604;BME280;43429;47.380;8.484;2022-07-09T07:03:43;97792.59;;;19.18;60.67
57604;BME280;43429;47.380;8.484;2022-07-09T07:06:10;97793.25;;;19.72;60.21
57604;BME280;43429;47.380;8.484;2022-07-09T07:08:36;97794.69;;;19.45;60.81
57604;BME280;43429;47.380;8.484;2022-07-09T07:11:02;97789.00;;;19.40;60.91
57604;BME280;43429;47.380;8.484;2022-07-09T07:13:28;97785.97;;;20.02;59.76
57604;BME280;43429;47.380;8.484;2022-07-09T07:15:54;97783.66;;;19.99;58.45
57604;BME280;43429;47.380;8.484;2022-07-09T07:18:20;97783.38;;;19.79;57.94
57604;BME280;43429;47.380;8.484;2022-07-09T07:20:48;97775.84;;;19.52;59.69
57604;BME280;43429;47.380;8.484;2022-07-09T07:23:15;97778.44;;;19.68;61.27
57604;BME280;43429;47.380;8.484;2022-07-09T07:25:41;97779.81;;;19.94;60.04
57604;BME280;43429;47.380;8.484;2022-07-09T07:28:07;97771.22;;;20.05;57.76
57604;BME280;43429;47.380;8.484;2022-07-09T07:30:33;97774.00;;;19.52;58.76
57604;BME280;43429;47.380;8.484;2022-07-09T07:33:00;97762.88;;;20.36;58.19
57604;BME280;43429;47.380;8.484;2022-07-09T07:35:27;97761.44;;;20.76;56.13
57604;BME280;43429;47.380;8.484;2022-07-09T07:37:53;97759.75;;;20.75;55.55
57604;BME280;43429;47.380;8.484;2022-07-09T07:40:19;97760.91;;;20.66;55.91
57604;BME280;43429;47.380;8.484;2022-07-09T07:42:45;97762.72;;;21.02;55.54
57604;BME280;43429;47.380;8.484;2022-07-09T07:45:12;97749.09;;;20.74;54.98
57604;BME280;43429;47.380;8.484;2022-07-09T07:47:38;97753.75;;;21.01;54.79
57604;BME280;43429;47.380;8.484;2022-07-09T07:50:05;97747.16;;;21.32;53.90
57604;BME280;43429;47.380;8.484;2022-07-09T07:52:32;97748.34;;;21.51;53.82
57604;BME280;43429;47.380;8.484;2022-07-09T07:54:59;97745.31;;;21.67;52.35
57604;BME280;43429;47.380;8.484;2022-07-09T07:57:25;97739.94;;;21.46;52.43
57604;BME280;43429;47.380;8.484;2022-07-09T07:59:51;97742.38;;;21.69;52.77
57604;BME280;43429;47.380;8.484;2022-07-09T08:02:17;97744.28;;;21.40;52.88
57604;BME280;43429;47.380;8.484;2022-07-09T08:04:43;97736.03;;;21.55;51.05
57604;BME280;43429;47.380;8.484;2022-07-09T08:07:09;97726.91;;;21.69;51.96
57604;BME280;43429;47.380;8.484;2022-07-09T08:09:35;97738.72;;;21.83;50.47
57604;BME280;43429;47.380;8.484;2022-07-09T08:12:04;97731.44;;;21.97;49.87
57604;BME280;43429;47.380;8.484;2022-07-09T08:14:30;97731.09;;;22.06;50.08
57604;BME280;43429;47.380;8.484;2022-07-09T08:16:56;97731.69;;;22.02;49.12
57604;BME280;43429;47.380;8.484;2022-07-09T08:19:22;97729.72;;;21.82;49.43
57604;BME280;43429;47.380;8.484;2022-07-09T08:21:49;97728.25;;;22.21;48.38
57604;BME280;43429;47.380;8.484;2022-07-09T08:24:15;97726.13;;;22.17;47.07
57604;BME280;43429;47.380;8.484;2022-07-09T08:26:42;97723.03;;;22.26;46.79
57604;BME280;43429;47.380;8.484;2022-07-09T08:29:08;97725.06;;;21.76;48.70
57604;BME280;43429;47.380;8.484;2022-07-09T08:31:35;97726.44;;;22.35;48.33
57604;BME280;43429;47.380;8.484;2022-07-09T08:34:01;97716.44;;;22.62;48.69
57604;BME280;43429;47.380;8.484;2022-07-09T08:36:27;97710.56;;;22.65;47.89
57604;BME280;43429;47.380;8.484;2022-07-09T08:38:54;97713.75;;;22.82;47.08
57604;BME280;43429;47.380;8.484;2022-07-09T08:41:22;97716.59;;;22.40;46.44
57604;BME280;43429;47.380;8.484;2022-07-09T08:43:49;97705.13;;;22.58;46.15
57604;BME280;43429;47.380;8.484;2022-07-09T08:46:17;97715.19;;;22.58;46.41
57604;BME280;43429;47.380;8.484;2022-07-09T08:48:44;97708.41;;;21.86;46.55
57604;BME280;43429;47.380;8.484;2022-07-09T08:51:11;97709.28;;;22.48;47.01
57604;BME280;43429;47.380;8.484;2022-07-09T08:53:40;97705.22;;;23.05;42.56
57604;BME280;43429;47.380;8.484;2022-07-09T08:56:07;97704.69;;;22.55;43.89
57604;BME280;43429;47.380;8.484;2022-07-09T08:58:34;97702.00;;;22.68;44.56
57604;BME280;43429;47.380;8.484;2022-07-09T09:01:00;97703.91;;;22.74;46.02
57604;BME280;43429;47.380;8.484;2022-07-09T09:03:27;97698.66;;;22.66;46.56
57604;BME280;43429;47.380;8.484;2022-07-09T09:06:01;97704.00;;;22.26;46.51
57604;BME280;43429;47.380;8.484;2022-07-09T09:08:28;97693.81;;;22.55;46.05
57604;BME280;43429;47.380;8.484;2022-07-09T09:10:58;97693.50;;;23.04;44.95
57604;BME280;43429;47.380;8.484;2022-07-09T09:13:24;97694.72;;;23.28;44.32
57604;BME280;43429;47.380;8.484;2022-07-09T09:16:02;97698.34;;;24.00;42.58
57604;BME280;43429;47.380;8.484;2022-07-09T09:18:29;97702.81;;;23.88;40.97
57604;BME280;43429;47.380;8.484;2022-07-09T09:21:02;97693.56;;;23.89;41.59
57604;BME280;43429;47.380;8.484;2022-07-09T09:23:28;97691.16;;;24.19;41.34
57604;BME280;43429;47.380;8.484;2022-07-09T09:25:54;97693.81;;;23.81;40.98
57604;BME280;43429;47.380;8.484;2022-07-09T09:28:20;97696.22;;;24.09;40.20
57604;BME280;43429;47.380;8.484;2022-07-09T09:30:46;97682.59;;;24.54;40.17
57604;BME280;43429;47.380;8.484;2022-07-09T09:33:15;97684.34;;;24.35;38.81
57604;BME280;43429;47.380;8.484;2022-07-09T09:35:43;97686.38;;;24.08;39.66
57604;BME280;43429;47.380;8.484;2022-07-09T09:38:10;97680.50;;;24.04;39.43
57604;BME280;43429;47.380;8.484;2022-07-09T09:40:36;97681.88;;;23.62;38.21
57604;BME280;43429;47.380;8.484;2022-07-09T09:43:03;97688.84;;;24.23;38.99
57604;BME280;43429;47.380;8.484;2022-07-09T09:45:29;97686.56;;;24.13;38.96
57604;BME280;43429;47.380;8.484;2022-07-09T09:47:58;97684.47;;;24.08;38.86
57604;BME280;43429;47.380;8.484;2022-07-09T09:50:25;97675.31;;;24.41;36.68
57604;BME280;43429;47.380;8.484;2022-07-09T09:52:53;97681.69;;;23.70;40.66
57604;BME280;43429;47.380;8.484;2022-07-09T09:55:21;97671.00;;;24.20;39.66
57604;BME280;43429;47.380;8.484;2022-07-09T09:57:48;97666.84;;;24.11;41.35
57604;BME280;43429;47.380;8.484;2022-07-09T10:00:15;97672.47;;;24.16;41.24
57604;BME280;43429;47.380;8.484;2022-07-09T10:02:45;97663.19;;;24.30;40.99
57604;BME280;43429;47.380;8.484;2022-07-09T10:05:12;97667.38;;;23.88;40.30
57604;BME280;43429;47.380;8.484;2022-07-09T10:07:40;97665.34;;;24.15;38.61
57604;BME280;43429;47.380;8.484;2022-07-09T10:10:07;97662.81;;;24.58;40.64
57604;BME280;43429;47.380;8.484;2022-07-09T10:12:35;97659.13;;;24.46;42.47
57604;BME280;43429;47.380;8.484;2022-07-09T10:15:03;97663.91;;;24.06;42.46
57604;BME280;43429;47.380;8.484;2022-07-09T10:17:39;97666.91;;;23.98;42.17
57604;BME280;43429;47.380;8.484;2022-07-09T10:20:07;97665.16;;;23.65;45.19
57604;BME280;43429;47.380;8.484;2022-07-09T10:22:36;97666.94;;;23.84;43.21
57604;BME280;43429;47.380;8.484;2022-07-09T10:25:03;97662.03;;;24.06;42.59
57604;BME280;43429;47.380;8.484;2022-07-09T10:27:41;97649.31;;;24.32;42.02
57604;BME280;43429;47.380;8.484;2022-07-09T10:30:09;97655.13;;;24.80;41.24
57604;BME280;43429;47.380;8.484;2022-07-09T10:33:01;97647.75;;;24.11;41.23
57604;BME280;43429;47.380;8.484;2022-07-09T10:35:27;97638.66;;;24.24;41.18
57604;BME280;43429;47.380;8.484;2022-07-09T10:37:53;97641.13;;;24.38;41.62
57604;BME280;43429;47.380;8.484;2022-07-09T10:40:22;97642.97;;;24.00;42.11
57604;BME280;43429;47.380;8.484;2022-07-09T10:42:58;97644.53;;;24.59;41.83
57604;BME280;43429;47.380;8.484;2022-07-09T10:45:25;97644.00;;;24.50;40.70
57604;BME280;43429;47.380;8.484;2022-07-09T10:47:54;97645.41;;;24.14;39.97
57604;BME280;43429;47.380;8.484;2022-07-09T10:50:21;97633.38;;;24.35;39.95
57604;BME280;43429;47.380;8.484;2022-07-09T10:52:48;97632.94;;;24.70;39.70
57604;BME280;43429;47.380;8.484;2022-07-09T10:55:16;97635.81;;;25.25;38.49
57604;BME280;43429;47.380;8.484;2022-07-09T10:57:43;97632.59;;;24.53;36.28
57604;BME280;43429;47.380;8.484;2022-07-09T11:00:14;97622.28;;;24.87;36.66
57604;BME280;43429;47.380;8.484;2022-07-09T11:02:53;97625.47;;;25.09;37.53
57604;BME280;43429;47.380;8.484;2022-07-09T11:05:20;97614.91;;;25.92;36.88
57604;BME280;43429;47.380;8.484;2022-07-09T11:07:58;97617.59;;;25.81;35.91
57604;BME280;43429;47.380;8.484;2022-07-09T11:10:25;97605.50;;;25.70;36.74
57604;BME280;43429;47.380;8.484;2022-07-09T11:12:53;97607.44;;;25.63;37.73
57604;BME280;43429;47.380;8.484;2022-07-09T11:15:21;97605.09;;;25.30;37.21
57604;BME280;43429;47.380;8.484;2022-07-09T11:17:57;97596.06;;;25.47;36.95
57604;BME280;43429;47.380;8.484;2022-07-09T11:20:24;97590.59;;;25.47;37.58
57604;BME280;43429;47.380;8.484;2022-07-09T11:22:51;97592.44;;;25.54;38.11
57604;BME280;43429;47.380;8.484;2022-07-09T11:25:18;97597.97;;;25.04;38.35
57604;BME280;43429;47.380;8.484;2022-07-09T11:27:44;97587.25;;;25.82;36.84
57604;BME280;43429;47.380;8.484;2022-07-09T11:30:14;97586.63;;;25.62;37.00
57604;BME280;43429;47.380;8.484;2022-07-09T11:32:41;97590.69;;;24.97;37.55
57604;BME280;43429;47.380;8.484;2022-07-09T11:35:08;97582.72;;;24.96;37.69
57604;BME280;43429;47.380;8.484;2022-07-09T11:37:34;97581.19;;;25.80;38.32
57604;BME280;43429;47.380;8.484;2022-07-09T11:40:00;97573.13;;;26.15;37.36
57604;BME280;43429;47.380;8.484;2022-07-09T11:42:27;97574.78;;;25.68;37.46
57604;BME280;43429;47.380;8.484;2022-07-09T11:44:53;97577.00;;;25.96;37.24
57604;BME280;43429;47.380;8.484;2022-07-09T11:47:30;97572.53;;;26.13;37.13
57604;BME280;43429;47.380;8.484;2022-07-09T11:50:04;97566.75;;;26.33;36.66
57604;BME280;43429;47.380;8.484;2022-07-09T11:52:30;97571.16;;;26.64;35.93
57604;BME280;43429;47.380;8.484;2022-07-09T11:55:00;97566.03;;;26.91;35.55
57604;BME280;43429;47.380;8.484;2022-07-09T11:57:27;97566.72;;;25.73;36.68
57604;BME280;43429;47.380;8.484;2022-07-09T11:59:53;97567.44;;;26.59;35.83
57604;BME280;43429;47.380;8.484;2022-07-09T12:02:23;97560.78;;;26.54;35.62
57604;BME280;43429;47.380;8.484;2022-07-09T12:04:49;97570.91;;;25.57;36.80
57604;BME280;43429;47.380;8.484;2022-07-09T12:07:16;97561.81;;;25.82;35.49
57604;BME280;43429;47.380;8.484;2022-07-09T12:09:42;97561.53;;;26.73;35.37
57604;BME280;43429;47.380;8.484;2022-07-09T12:12:08;97558.34;;;27.75;34.55
57604;BME280;43429;47.380;8.484;2022-07-09T12:14:34;97566.84;;;27.50;32.91
57604;BME280;43429;47.380;8.484;2022-07-09T12:17:01;97558.03;;;28.00;32.80
57604;BME280;43429;47.380;8.484;2022-07-09T12:19:27;97548.25;;;27.93;32.54
57604;BME280;43429;47.380;8.484;2022-07-09T12:21:53;97559.75;;;28.64;31.60
57604;BME280;43429;47.380;8.484;2022-07-09T12:24:20;97551.88;;;29.23;29.79
57604;BME280;43429;47.380;8.484;2022-07-09T12:26:46;97553.31;;;28.13;30.34
57604;BME280;43429;47.380;8.484;2022-07-09T12:29:12;97546.00;;;28.47;30.32
57604;BME280;43429;47.380;8.484;2022-07-09T12:31:38;97547.06;;;29.74;28.39
57604;BME280;43429;47.380;8.484;2022-07-09T12:34:05;97555.44;;;29.40;29.23
57604;BME280;43429;47.380;8.484;2022-07-09T12:36:31;97556.25;;;29.02;28.85
57604;BME280;43429;47.380;8.484;2022-07-09T12:38:58;97544.06;;;30.51;27.41
57604;BME280;43429;47.380;8.484;2022-07-09T12:41:25;97551.13;;;29.66;28.77
57604;BME280;43429;47.380;8.484;2022-07-09T12:43:51;97538.84;;;30.01;27.74
57604;BME280;43429;47.380;8.484;2022-07-09T12:46:17;97539.59;;;30.72;26.77
57604;BME280;43429;47.380;8.484;2022-07-09T12:48:43;97527.22;;;29.50;28.17
57604;BME280;43429;47.380;8.484;2022-07-09T12:51:09;97532.25;;;30.24;27.50
57604;BME280;43429;47.380;8.484;2022-07-09T12:53:35;97520.66;;;30.54;26.43
57604;BME280;43429;47.380;8.484;2022-07-09T12:56:01;97530.00;;;30.21;27.92